Airfield :
LOGIN :

Register | Disclaimer

   EN    FR    IT 

 










Legend :    VFR   Marginal VFR   IFR   Intensive IFR   Very Intensive IFR
Visi :
Ceiling :
>= 8 km
>= 3000ft
5 to 8 km
1000 to 3000 ft
1500m to 5 km
500 to 1000 ft
800 to 1500m
200 to 500 ft
< 800m
< 200 ft
Symbols :   Thunderstorms  Fog  Heavy snow  Heavy precipitations  Wind > 20 kt
SIGMETs :     Misc.  Thunderstorms  Icing  Turbulence  Mountain Waves  Volcanic Ashes






- Airport Elevation : 286 ft
- IATA code : FFD


EGVA - RAF Fairford

CURRENT METAR :
  • 301656Z AUTO 02011KT 9999 FEW040 BKN070 07/03 A3048 RMK AO2 SLP328 T00730030 $

EXPIRED METARs :
  • 301606Z AUTO 03011KT 9999 FEW040 SCT049 OVC060 07/04 A3049 RMK AO2 SLP332 $
  • 301556Z AUTO 03012KT 9999 FEW040 BKN049 OVC060 07/03 A3049 RMK AO2 PK WND 04026/03 DZB1459E00RAB00E21 SLP332 P0000 T00690033 $

Expired Forecast.



MET'MAP, your aeronautical weather chart ! - Copyright ORBIFLY December 2007 - Disclaimer

ORBIFLY MET'MAP TEAM :

Programming & Development : Alexandra Zaïnal
Concept & original design : Baudouin d'Aumeries
Assistance for programming : Marc-Olivier Méhu
Technical & hardware support : Manuel Goepfert

Contact : metmap@orbifly.com




SOURCES & CREDITS :

   NOAA